ホバート の空港の天気 - METARとTAF

ホバート国際空港 ( YMHB / HBA ) - オーストラリア タスマニア州、Cambridge
飛行場実況気象(Metar)
観測時間04/27 14:30 AEST (04/27 04:30 UTC)
風向・風速南南東 2m/s
視程10km以上
天気現象
少しの雲 雲底高度 1160m
全天の4割程度の雲 雲底高度 1370m
全天の8割程度の雲 雲底高度 8230m
気温16℃
湿度55%
気圧1024hPa
METARYMHB 270430Z 16004KT 9999 FEW038 SCT045 BKN270 16/07 Q1024 RF00.0/000.0
過去の天気等 Google飛行場航空写真 Wunderground天気予報

過去48時間のMETAR

飛行場予報(TAF)
発表時間: 4/27 12:32 AEST (4/27 02:32 UTC)
予報対象時間: 27日12時 AEST ~ 28日10時 AEST
風向・風速北西 3m/s
視程10km以上
全天の4割程度の雲 雲底高度 1,220m
27日13時 AEST から
風向・風速南東 4m/s
視程10km以上
全天の4割程度の雲 雲底高度 1,220m
27日18時 AEST から
風向・風速北北西 4m/s
視程10km以上
少しの雲 雲底高度 910m
TAF AMD YMHB 270232Z 2702/2724 32005KT 9999 SCT040
FM270300 14008KT 9999 SCT040
FM270800 33008KT 9999 FEW030